Terminal Aerodrome Forecast
Issued by NWS Denver/Boulder, CO

Home | Current Version | Previous Version | Text Only | Print | Product List | Glossary On
Versions: 1 2 3 4 5 6 7 8 9 10 11 12 13 14 15 16 17 18 19 20 21 22 23 24 25 26 27 28 29 30 31 32 33 34 35 36
000
FTUS45 KBOU 212043 AAA
TAFDEN
TAF AMD
KDEN 212043Z 2121/2224 04007KT P6SM FEW090 SCT120 SCT220
     FM212230 25013G22KT P6SM VCTS SCT080CB BKN120
      TEMPO 2123/2201 VRB20G35KT -TSRA BKN080CB
     FM220100 34011KT P6SM VCSH FEW080 BKN120 BKN200
     FM220600 20006KT P6SM FEW060 SCT090 BKN120
     FM221500 33005KT P6SM FEW120 SCT200
     FM222000 08008KT P6SM VCTS SCT090CB BKN120=

USA.gov is the U.S. government's official web portal to all federal, state and local government web resources and services.